Time;durP1;ratioP1;P1;durP2;ratioP2;P2;SDS_P1;SDS_P2;PMS_P1;PMS_P2;Temp;Humidity;BMP_temperature;BMP_pressure;BME280_temperature;BME280_humidity;BME280_pressure;Samples;Min_cycle;Max_cycle;Signal;HPM_P1;HPM_P2
2023/03/07 00:01:04;;;;;;;11.77;2.00;;;4.10;99.90;;;;;;5073881;28;20040;-59
2023/03/07 00:03:30;;;;;;;13.07;3.28;;;4.00;99.90;;;;;;5090593;28;20036;-59
2023/03/07 00:06:04;;;;;;;12.00;2.30;;;4.00;99.90;;;;;;5091758;28;20040;-59
2023/03/07 00:08:31;;;;;;;12.90;2.95;;;4.00;99.90;;;;;;5092522;28;20047;-59
2023/03/07 00:11:00;;;;;;;11.80;2.70;;;4.00;99.90;;;;;;5090166;28;20050;-59
2023/03/07 00:13:29;;;;;;;8.93;1.90;;;3.90;99.90;;;;;;5090757;28;20047;-59
2023/03/07 00:15:54;;;;;;;22.50;3.35;;;3.90;99.90;;;;;;5090982;28;20059;-59
2023/03/07 00:18:20;;;;;;;10.88;3.05;;;3.90;99.90;;;;;;5089894;28;20488;-59
2023/03/07 00:20:56;;;;;;;9.30;2.95;;;3.90;99.90;;;;;;5091095;28;20096;-59
2023/03/07 00:23:22;;;;;;;11.68;2.28;;;3.90;99.90;;;;;;5086789;28;20071;-59
2023/03/07 00:25:59;;;;;;;11.23;2.28;;;3.90;99.90;;;;;;5069933;28;20084;-59
2023/03/07 00:28:25;;;;;;;15.50;2.60;;;3.90;99.90;;;;;;5070071;28;20052;-59
2023/03/07 00:30:51;;;;;;;9.98;2.03;;;3.90;99.90;;;;;;5070579;28;20044;-59
2023/03/07 00:33:16;;;;;;;13.40;2.58;;;3.90;99.90;;;;;;5069279;28;20067;-59
2023/03/07 00:35:42;;;;;;;12.88;2.45;;;4.00;99.90;;;;;;5070486;28;20481;-59
2023/03/07 00:38:07;;;;;;;11.43;2.40;;;4.00;99.90;;;;;;5085456;28;20396;-59
2023/03/07 00:40:33;;;;;;;10.70;2.20;;;4.00;99.90;;;;;;5091063;28;20036;-59
2023/03/07 00:42:59;;;;;;;9.63;2.05;;;4.00;99.90;;;;;;5090828;28;20044;-59
2023/03/07 00:45:24;;;;;;;8.73;2.30;;;4.00;99.90;;;;;;5089903;28;20076;-59
2023/03/07 00:47:50;;;;;;;14.73;2.30;;;4.00;99.90;;;;;;5089704;28;20075;-59
2023/03/07 00:50:16;;;;;;;18.40;2.70;;;4.10;99.90;;;;;;5089979;28;20071;-59
2023/03/07 00:52:41;;;;;;;7.45;1.85;;;4.10;99.90;;;;;;5072712;28;20037;-59
2023/03/07 00:55:07;;;;;;;7.28;2.25;;;4.10;99.90;;;;;;5073825;28;20090;-59
2023/03/07 00:57:33;;;;;;;17.83;2.63;;;4.10;99.90;;;;;;5075291;28;20048;-59
2023/03/07 00:59:59;;;;;;;10.55;2.45;;;4.10;99.90;;;;;;5075022;28;20036;-59
2023/03/07 01:02:24;;;;;;;9.57;2.20;;;4.20;99.90;;;;;;5093797;28;20853;-59
2023/03/07 01:04:50;;;;;;;12.95;3.22;;;4.10;99.90;;;;;;5095443;28;20506;-59
2023/03/07 01:07:15;;;;;;;8.23;2.10;;;4.10;99.90;;;;;;5092926;28;20401;-59
2023/03/07 01:09:41;;;;;;;14.25;2.70;;;4.20;99.90;;;;;;5095283;28;20068;-59
2023/03/07 01:12:07;;;;;;;13.25;2.10;;;4.20;99.90;;;;;;5094528;28;20071;-60
2023/03/07 01:14:33;;;;;;;10.57;1.52;;;4.20;99.90;;;;;;5094353;28;20570;-59
2023/03/07 01:16:58;;;;;;;9.93;2.78;;;4.20;99.90;;;;;;5094967;28;20036;-59
2023/03/07 01:19:24;;;;;;;7.15;1.85;;;4.10;99.90;;;;;;5093578;28;20432;-59
2023/03/07 01:21:50;;;;;;;5.50;1.27;;;4.20;99.90;;;;;;5092923;28;20115;-59
2023/03/07 01:24:16;;;;;;;13.50;1.83;;;4.10;99.90;;;;;;5093263;28;20072;-59
2023/03/07 01:26:42;;;;;;;6.38;2.42;;;4.00;99.90;;;;;;5095044;28;20044;-59
2023/03/07 01:29:09;;;;;;;6.10;1.40;;;3.90;99.90;;;;;;5093554;28;20039;-59
2023/03/07 01:31:35;;;;;;;10.95;3.33;;;3.90;99.90;;;;;;5093611;28;20078;-59
2023/03/07 01:34:01;;;;;;;9.73;1.73;;;3.80;99.90;;;;;;5093306;28;20082;-59
2023/03/07 01:36:31;;;;;;;8.98;2.15;;;3.80;99.90;;;;;;5092322;28;20092;-60
2023/03/07 01:39:01;;;;;;;7.20;1.38;;;3.70;99.90;;;;;;5107571;28;20036;-60
2023/03/07 01:41:30;;;;;;;9.77;2.03;;;3.70;99.90;;;;;;5114766;28;20131;-59
2023/03/07 01:43:57;;;;;;;14.68;2.03;;;3.70;99.90;;;;;;5095876;28;20035;-59
2023/03/07 01:46:53;;;;;;;14.10;2.67;;;3.60;99.90;;;;;;5114408;28;20043;-59
2023/03/07 01:49:24;;;;;;;9.00;2.17;;;3.50;99.90;;;;;;5110102;28;20047;-63
2023/03/07 01:52:10;;;;;;;9.00;2.22;;;3.50;99.90;;;;;;5093436;28;20067;-64
2023/03/07 01:54:41;;;;;;;7.97;1.75;;;3.50;99.90;;;;;;5094350;28;20036;-63
2023/03/07 01:57:07;;;;;;;9.57;1.70;;;3.50;99.90;;;;;;5092224;28;20040;-63
2023/03/07 01:59:41;;;;;;;5.32;1.88;;;3.50;99.90;;;;;;5093118;28;20476;-63
2023/03/07 02:02:11;;;;;;;8.57;2.60;;;3.60;99.90;;;;;;5075263;28;20503;-64
2023/03/07 02:04:53;;;;;;;9.52;1.50;;;3.70;99.90;;;;;;5071987;28;20045;-63
2023/03/07 02:07:22;;;;;;;8.32;1.73;;;3.90;99.90;;;;;;5072101;28;20047;-64
2023/03/07 02:09:50;;;;;;;11.13;2.50;;;3.90;99.90;;;;;;5086447;28;20397;-64
2023/03/07 02:12:15;;;;;;;13.52;2.83;;;3.80;99.90;;;;;;5071190;28;20052;-64
2023/03/07 02:14:47;;;;;;;10.55;1.92;;;3.80;99.90;;;;;;5072376;28;20036;-64
2023/03/07 02:17:13;;;;;;;6.63;1.45;;;3.80;99.90;;;;;;5054260;28;20121;-63
2023/03/07 02:20:01;;;;;;;8.02;2.00;;;3.70;99.90;;;;;;5078650;28;20489;-63
2023/03/07 02:22:28;;;;;;;10.52;2.03;;;3.70;99.90;;;;;;5075883;28;20063;-63
2023/03/07 02:25:16;;;;;;;11.30;2.25;;;3.60;99.90;;;;;;5091716;28;20040;-63
2023/03/07 02:27:43;;;;;;;8.40;1.83;;;3.60;99.90;;;;;;5092718;28;20039;-63
2023/03/07 02:30:10;;;;;;;6.47;1.55;;;3.70;99.90;;;;;;5092064;28;20035;-63
2023/03/07 02:32:35;;;;;;;9.90;1.92;;;3.70;99.90;;;;;;5091521;28;20044;-63
2023/03/07 02:35:01;;;;;;;10.68;1.77;;;3.70;99.90;;;;;;5101689;28;20054;-64
2023/03/07 02:37:36;;;;;;;10.55;2.13;;;3.70;99.90;;;;;;5112065;28;20392;-63
2023/03/07 02:40:08;;;;;;;9.48;1.73;;;3.70;99.90;;;;;;5111540;28;20047;-63
2023/03/07 02:42:37;;;;;;;6.40;1.30;;;3.70;99.90;;;;;;5113694;28;20047;-63
2023/03/07 02:45:08;;;;;;;8.57;2.40;;;3.60;99.90;;;;;;5110973;28;20089;-63
2023/03/07 02:47:34;;;;;;;5.10;1.60;;;3.60;99.90;;;;;;5091309;28;20506;-63
2023/03/07 02:50:00;;;;;;;7.32;1.50;;;3.60;99.90;;;;;;5092316;28;20053;-63
2023/03/07 02:52:27;;;;;;;7.45;1.65;;;3.60;99.90;;;;;;5092260;28;20496;-63
2023/03/07 02:54:53;;;;;;;8.07;1.70;;;3.50;99.90;;;;;;5092047;28;20401;-63
2023/03/07 02:57:19;;;;;;;11.55;1.85;;;3.60;99.90;;;;;;5091273;28;20119;-63
2023/03/07 02:59:45;;;;;;;6.03;1.48;;;3.60;99.90;;;;;;5092281;28;20115;-63
2023/03/07 03:02:11;;;;;;;8.23;1.85;;;3.60;99.90;;;;;;5074426;28;20480;-63
2023/03/07 03:04:36;;;;;;;8.55;1.48;;;3.50;99.90;;;;;;5074933;28;20127;-63
2023/03/07 03:07:02;;;;;;;7.90;1.40;;;3.50;99.90;;;;;;5090651;28;20128;-63
2023/03/07 03:09:28;;;;;;;11.40;1.70;;;3.50;99.90;;;;;;5091263;28;20039;-63
2023/03/07 03:11:54;;;;;;;9.65;3.80;;;3.40;99.90;;;;;;5091714;28;20046;-63
2023/03/07 03:14:19;;;;;;;7.88;1.58;;;3.50;99.90;;;;;;5089431;28;20440;-63
2023/03/07 03:16:45;;;;;;;12.02;1.65;;;3.50;99.90;;;;;;5093027;28;20047;-63
2023/03/07 03:19:11;;;;;;;7.35;1.35;;;3.40;99.90;;;;;;5091117;28;20047;-63
2023/03/07 03:21:37;;;;;;;7.43;1.30;;;3.40;99.90;;;;;;5073936;28;20438;-63
2023/03/07 03:24:07;;;;;;;7.78;1.85;;;3.40;99.90;;;;;;5092377;28;20433;-63
2023/03/07 03:26:34;;;;;;;7.75;1.52;;;3.40;99.90;;;;;;5091700;28;20039;-63
2023/03/07 03:29:00;;;;;;;8.85;1.75;;;3.40;99.90;;;;;;5091911;28;20043;-63
2023/03/07 03:31:27;;;;;;;8.05;2.15;;;3.30;99.90;;;;;;5087451;28;20041;-63
2023/03/07 03:33:53;;;;;;;8.45;1.60;;;3.30;99.90;;;;;;5071252;28;20041;-63
2023/03/07 03:36:19;;;;;;;7.53;1.67;;;3.40;99.90;;;;;;5070828;28;20044;-63
2023/03/07 03:38:45;;;;;;;8.18;1.90;;;3.40;99.90;;;;;;5071006;28;20040;-63
2023/03/07 03:41:14;;;;;;;8.00;1.50;;;3.30;99.90;;;;;;5053746;28;20048;-63
2023/03/07 03:43:40;;;;;;;8.52;2.03;;;3.40;99.90;;;;;;5078025;28;20128;-63
2023/03/07 03:46:06;;;;;;;5.38;1.38;;;3.40;99.90;;;;;;5090536;28;20071;-63
2023/03/07 03:48:31;;;;;;;6.05;1.65;;;3.40;99.90;;;;;;5106063;28;20035;-63
2023/03/07 03:51:10;;;;;;;6.13;1.90;;;3.40;99.90;;;;;;5111898;28;20504;-63
2023/03/07 03:53:37;;;;;;;6.80;1.40;;;3.40;99.90;;;;;;5112917;28;20050;-63
2023/03/07 03:56:20;;;;;;;8.75;2.00;;;3.40;99.90;;;;;;5110536;28;20039;-64
2023/03/07 03:58:48;;;;;;;9.68;1.95;;;3.40;99.90;;;;;;5094657;28;20484;-63
2023/03/07 04:01:13;;;;;;;9.80;2.00;;;3.30;99.90;;;;;;5110317;28;20119;-63
2023/03/07 04:03:41;;;;;;;9.48;2.08;;;3.30;99.90;;;;;;5110893;28;20165;-63
2023/03/07 04:06:10;;;;;;;9.93;1.88;;;3.30;99.90;;;;;;5111021;28;20050;-63
2023/03/07 04:08:37;;;;;;;6.70;2.13;;;3.30;99.90;;;;;;5112686;28;20092;-63
2023/03/07 04:11:06;;;;;;;6.25;1.95;;;3.30;99.90;;;;;;5111504;28;20074;-63
2023/03/07 04:13:35;;;;;;;7.68;1.73;;;3.30;99.90;;;;;;5112178;28;20031;-63
2023/03/07 04:16:02;;;;;;;8.57;2.38;;;3.40;99.90;;;;;;5110843;28;20039;-63
2023/03/07 04:18:28;;;;;;;8.82;1.98;;;3.40;99.90;;;;;;5110516;28;20039;-63
2023/03/07 04:20:54;;;;;;;7.43;1.73;;;3.30;99.90;;;;;;5112611;28;20038;-63
2023/03/07 04:23:22;;;;;;;7.40;1.92;;;3.40;99.90;;;;;;5110940;28;20092;-63
2023/03/07 04:25:56;;;;;;;11.20;2.08;;;3.40;99.90;;;;;;5094516;28;20031;-63
2023/03/07 04:28:24;;;;;;;10.32;2.28;;;3.40;99.90;;;;;;5112171;28;20038;-63
2023/03/07 04:30:52;;;;;;;9.77;1.67;;;3.40;99.90;;;;;;5094198;28;20040;-63
2023/03/07 04:33:19;;;;;;;9.93;1.45;;;3.50;99.90;;;;;;5095429;28;20051;-63
2023/03/07 04:35:44;;;;;;;6.20;1.45;;;3.50;99.90;;;;;;5094825;28;20071;-65
2023/03/07 04:38:11;;;;;;;7.82;2.30;;;3.50;99.90;;;;;;5093492;28;20083;-65
2023/03/07 04:40:37;;;;;;;7.07;1.70;;;3.40;99.90;;;;;;5094786;28;20493;-65
2023/03/07 04:43:04;;;;;;;8.77;1.80;;;3.50;99.90;;;;;;5094132;28;20051;-66
2023/03/07 04:45:32;;;;;;;8.50;2.17;;;3.50;99.90;;;;;;5095091;28;20044;-65
2023/03/07 04:47:57;;;;;;;9.25;1.95;;;3.50;99.90;;;;;;5094653;28;20538;-65
2023/03/07 04:50:23;;;;;;;11.32;2.30;;;3.50;99.90;;;;;;5095132;28;20040;-65
2023/03/07 04:52:49;;;;;;;7.93;1.70;;;3.50;99.90;;;;;;5094559;28;20404;-62
2023/03/07 04:55:15;;;;;;;7.10;1.45;;;3.50;99.90;;;;;;5093558;28;20044;-62
2023/03/07 04:57:40;;;;;;;9.38;2.72;;;3.60;99.90;;;;;;5094101;28;20491;-62
2023/03/07 05:00:10;;;;;;;6.45;2.05;;;3.60;99.90;;;;;;5092768;28;20040;-62
2023/03/07 05:02:36;;;;;;;9.50;1.85;;;3.50;99.90;;;;;;5095700;28;20046;-62
2023/03/07 05:05:04;;;;;;;8.20;1.70;;;3.50;99.90;;;;;;5095109;28;20075;-62
2023/03/07 05:07:30;;;;;;;6.65;1.55;;;3.50;99.90;;;;;;5093523;28;20496;-62
2023/03/07 05:09:56;;;;;;;11.88;1.95;;;3.40;99.90;;;;;;5094084;28;20097;-62
2023/03/07 05:12:22;;;;;;;8.60;1.77;;;3.40;99.90;;;;;;5093265;28;20044;-62
2023/03/07 05:14:48;;;;;;;8.68;1.90;;;3.50;99.90;;;;;;5089990;28;20110;-62
2023/03/07 05:17:14;;;;;;;8.82;1.60;;;3.40;99.90;;;;;;5090096;28;20480;-61
2023/03/07 05:19:41;;;;;;;6.00;1.00;;;3.40;99.90;;;;;;5074944;28;20112;-61
2023/03/07 05:22:07;;;;;;;4.78;1.02;;;3.30;99.90;;;;;;5073561;28;20043;-62
2023/03/07 05:24:33;;;;;;;6.07;1.30;;;3.30;99.90;;;;;;5074864;28;20123;-62
2023/03/07 05:26:58;;;;;;;7.38;1.52;;;3.20;99.90;;;;;;5074657;28;20128;-62
2023/03/07 05:29:24;;;;;;;7.75;1.92;;;3.20;99.90;;;;;;5103365;27;20477;-61
2023/03/07 05:31:50;;;;;;;6.97;1.70;;;3.10;99.90;;;;;;5095029;28;20044;-62
2023/03/07 05:34:16;;;;;;;8.77;1.75;;;3.10;99.90;;;;;;5092085;28;20503;-62
2023/03/07 05:36:42;;;;;;;8.95;2.08;;;3.10;99.90;;;;;;5093644;28;20044;-62
2023/03/07 05:39:09;;;;;;;8.15;1.58;;;3.10;99.90;;;;;;5075592;28;20444;-62
2023/03/07 05:41:34;;;;;;;6.25;1.50;;;3.10;99.90;;;;;;5092420;28;20063;-62
2023/03/07 05:44:00;;;;;;;11.88;1.73;;;3.10;99.90;;;;;;5090289;28;20040;-62
2023/03/07 05:46:26;;;;;;;7.03;2.05;;;3.10;99.90;;;;;;5073066;28;20040;-61
2023/03/07 05:48:52;;;;;;;6.75;1.58;;;3.10;99.90;;;;;;5072538;28;20127;-62
2023/03/07 05:51:17;;;;;;;8.40;1.88;;;3.10;99.90;;;;;;5072568;28;20106;-62
2023/03/07 05:53:45;;;;;;;5.82;1.35;;;3.10;99.90;;;;;;5074165;28;20400;-62
2023/03/07 05:56:11;;;;;;;9.23;2.00;;;3.10;99.90;;;;;;5071251;28;20053;-62
2023/03/07 05:58:37;;;;;;;9.65;1.40;;;3.10;99.90;;;;;;5085042;28;20032;-62
2023/03/07 06:01:03;;;;;;;5.55;1.33;;;3.10;99.90;;;;;;5089333;28;20079;-62
2023/03/07 06:03:30;;;;;;;6.63;1.67;;;3.10;99.90;;;;;;5071673;28;20048;-62
2023/03/07 06:05:55;;;;;;;5.57;1.30;;;3.20;99.90;;;;;;5072908;28;20397;-62
2023/03/07 06:08:21;;;;;;;11.15;1.25;;;3.20;99.90;;;;;;5088117;28;20043;-62
2023/03/07 06:10:53;;;;;;;5.35;1.35;;;3.20;99.90;;;;;;5092068;28;20051;-62
2023/03/07 06:13:22;;;;;;;6.63;1.75;;;3.20;99.90;;;;;;5093662;28;20044;-62
2023/03/07 06:15:54;;;;;;;9.82;3.92;;;3.10;99.90;;;;;;5092759;28;20441;-62
2023/03/07 06:18:20;;;;;;;7.28;2.58;;;3.10;99.90;;;;;;5091512;28;20083;-62
2023/03/07 06:20:57;;;;;;;9.30;4.00;;;2.90;99.90;;;;;;5076018;28;20481;-62
2023/03/07 06:23:24;;;;;;;10.88;7.82;;;2.90;99.90;;;;;;5091395;28;20035;-62
2023/03/07 06:25:50;;;;;;;8.25;3.72;;;2.80;99.90;;;;;;5093259;28;20105;-62
2023/03/07 06:28:16;;;;;;;7.03;2.05;;;2.70;99.90;;;;;;5088598;28;20032;-62
2023/03/07 06:30:41;;;;;;;4.88;1.20;;;2.70;99.90;;;;;;5072745;28;20454;-62
2023/03/07 06:33:07;;;;;;;13.98;8.23;;;2.60;99.90;;;;;;5071541;28;20046;-62
2023/03/07 06:35:33;;;;;;;8.10;4.85;;;2.60;99.90;;;;;;5088856;28;20076;-62
2023/03/07 06:37:59;;;;;;;8.02;4.57;;;2.50;99.90;;;;;;5054527;28;20496;-62
2023/03/07 06:40:25;;;;;;;5.22;2.03;;;2.50;99.90;;;;;;5072420;28;20044;-62
2023/03/07 06:42:52;;;;;;;6.07;1.52;;;2.50;99.90;;;;;;5091733;28;20043;-62
2023/03/07 06:45:18;;;;;;;25.48;12.18;;;2.40;99.90;;;;;;5090907;28;20040;-62
2023/03/07 06:47:43;;;;;;;64.95;29.85;;;2.40;99.90;;;;;;5093320;28;20036;-61
2023/03/07 06:50:10;;;;;;;17.52;8.23;;;2.40;99.90;;;;;;5075113;28;20050;-62
2023/03/07 06:52:35;;;;;;;65.00;32.45;;;2.40;99.90;;;;;;5091432;28;20087;-62
2023/03/07 06:55:02;;;;;;;17.52;11.63;;;2.40;99.90;;;;;;5092867;28;20069;-62
2023/03/07 06:57:28;;;;;;;33.28;19.13;;;2.40;99.90;;;;;;5091749;28;20496;-61
2023/03/07 06:59:53;;;;;;;12.10;6.80;;;2.50;99.90;;;;;;5071148;28;20058;-62
2023/03/07 07:02:20;;;;;;;14.63;12.27;;;2.50;99.90;;;;;;5071005;28;20523;-62
2023/03/07 07:04:46;;;;;;;8.27;2.97;;;2.50;99.90;;;;;;5071441;28;20170;-62
2023/03/07 07:07:11;;;;;;;8.38;2.85;;;2.50;99.90;;;;;;5070159;28;20123;-59
2023/03/07 07:09:37;;;;;;;10.63;7.35;;;2.50;99.90;;;;;;5054987;28;20047;-59
2023/03/07 07:12:04;;;;;;;16.58;14.88;;;2.50;99.90;;;;;;5071410;28;20113;-59
2023/03/07 07:14:31;;;;;;;18.05;16.40;;;2.60;99.90;;;;;;5086556;28;20123;-59
2023/03/07 07:16:56;;;;;;;9.05;3.67;;;2.60;99.90;;;;;;5111939;28;20043;-59
2023/03/07 07:19:22;;;;;;;9.50;6.72;;;2.60;99.90;;;;;;5111391;28;20051;-59
2023/03/07 07:21:48;;;;;;;7.65;3.05;;;2.60;99.90;;;;;;5094139;28;20043;-59
2023/03/07 07:24:13;;;;;;;7.80;2.40;;;2.60;99.90;;;;;;5111639;28;20036;-59
2023/03/07 07:26:39;;;;;;;6.53;2.17;;;2.70;99.90;;;;;;5111505;28;20101;-59
2023/03/07 07:29:05;;;;;;;7.97;3.20;;;2.70;99.90;;;;;;5110914;28;20043;-59
2023/03/07 07:31:33;;;;;;;7.70;1.70;;;2.70;99.90;;;;;;5111717;28;20043;-59
2023/03/07 07:33:59;;;;;;;5.47;1.70;;;2.70;99.90;;;;;;5112076;28;20415;-59
2023/03/07 07:36:25;;;;;;;5.38;2.45;;;2.80;99.90;;;;;;5112129;28;20357;-59
2023/03/07 07:38:51;;;;;;;6.93;1.98;;;2.80;99.90;;;;;;5094769;28;20040;-59
2023/03/07 07:41:19;;;;;;;9.27;3.92;;;2.90;99.90;;;;;;5110046;28;20048;-59
2023/03/07 07:43:49;;;;;;;7.22;3.35;;;2.90;99.90;;;;;;5112786;28;20039;-59
2023/03/07 07:46:15;;;;;;;5.97;1.65;;;2.90;99.90;;;;;;5111312;28;20047;-59
2023/03/07 07:48:41;;;;;;;5.30;2.80;;;3.00;99.90;;;;;;5111887;28;20092;-59
2023/03/07 07:51:06;;;;;;;7.50;2.05;;;3.00;99.90;;;;;;5102913;28;20102;-59
2023/03/07 07:53:32;;;;;;;4.93;1.15;;;3.00;99.90;;;;;;5087939;28;20040;-59
2023/03/07 07:55:58;;;;;;;5.75;1.75;;;3.10;99.90;;;;;;5099153;28;20050;-61
2023/03/07 07:58:24;;;;;;;6.22;1.67;;;3.10;99.90;;;;;;5096953;28;20039;-60
2023/03/07 08:00:50;;;;;;;5.85;1.48;;;3.10;99.90;;;;;;5103130;28;20036;-60
2023/03/07 08:03:16;;;;;;;6.15;1.55;;;3.10;99.90;;;;;;5098003;28;20078;-61
2023/03/07 08:05:47;;;;;;;5.93;1.40;;;3.00;99.90;;;;;;5099597;28;20131;-60
2023/03/07 08:08:15;;;;;;;5.68;1.42;;;2.90;99.90;;;;;;5103905;28;20044;-60
2023/03/07 08:10:42;;;;;;;5.22;1.30;;;2.70;99.90;;;;;;5101055;28;20055;-60
2023/03/07 08:13:14;;;;;;;6.03;1.83;;;2.60;99.90;;;;;;5098249;28;20086;-60
2023/03/07 08:15:41;;;;;;;3.30;1.17;;;2.60;99.90;;;;;;5076676;28;20430;-60
2023/03/07 08:18:07;;;;;;;5.32;2.03;;;2.50;99.90;;;;;;5107553;28;20353;-60
2023/03/07 08:20:33;;;;;;;6.88;1.30;;;2.50;99.90;;;;;;5116802;28;20032;-61
2023/03/07 08:22:58;;;;;;;5.85;1.90;;;2.50;99.90;;;;;;5116505;28;20432;-60
2023/03/07 08:25:24;;;;;;;5.68;1.65;;;2.50;99.90;;;;;;5092880;28;20044;-60
2023/03/07 08:27:53;;;;;;;4.57;1.33;;;2.50;99.90;;;;;;5095364;28;20047;-61
2023/03/07 08:30:23;;;;;;;5.78;1.80;;;2.30;99.90;;;;;;5101463;28;20054;-60
2023/03/07 08:32:50;;;;;;;11.00;1.40;;;2.20;99.90;;;;;;5098548;28;20128;-60
2023/03/07 08:35:17;;;;;;;4.35;1.13;;;2.20;99.90;;;;;;5116142;28;20040;-60
2023/03/07 08:37:44;;;;;;;7.88;1.42;;;2.10;99.90;;;;;;5088421;28;20052;-60
2023/03/07 08:40:10;;;;;;;5.03;1.05;;;2.10;99.90;;;;;;5090109;28;20062;-61
2023/03/07 08:42:36;;;;;;;5.95;1.40;;;2.10;99.90;;;;;;5108547;28;20055;-60
2023/03/07 08:45:02;;;;;;;7.65;2.42;;;2.10;99.90;;;;;;5090508;28;20809;-61
2023/03/07 08:47:27;;;;;;;4.15;1.58;;;2.10;99.90;;;;;;5077340;28;20385;-60
2023/03/07 08:49:54;;;;;;;4.35;1.50;;;2.10;99.90;;;;;;5095006;28;20048;-61
2023/03/07 08:52:20;;;;;;;6.82;1.77;;;2.10;99.90;;;;;;5076179;28;20399;-60
2023/03/07 08:54:45;;;;;;;5.60;1.40;;;2.20;99.90;;;;;;5086177;28;20054;-61
2023/03/07 08:57:11;;;;;;;4.45;1.50;;;2.20;99.90;;;;;;5095567;28;20059;-61
2023/03/07 08:59:37;;;;;;;8.50;2.17;;;2.20;99.90;;;;;;5095796;28;20051;-61
2023/03/07 09:02:02;;;;;;;6.78;1.48;;;2.20;99.90;;;;;;5074130;28;20044;-61
2023/03/07 09:04:28;;;;;;;6.75;1.35;;;2.20;99.90;;;;;;5074212;28;20036;-61
2023/03/07 09:06:55;;;;;;;3.47;1.05;;;2.20;99.90;;;;;;5078871;28;20051;-61
2023/03/07 09:09:21;;;;;;;7.68;1.98;;;2.20;99.90;;;;;;5058974;28;20033;-60
2023/03/07 09:11:47;;;;;;;7.68;1.90;;;2.30;99.90;;;;;;5093399;28;20036;-61
2023/03/07 09:14:13;;;;;;;6.72;1.60;;;2.30;99.90;;;;;;5089545;28;20036;-60
2023/03/07 09:16:38;;;;;;;7.85;2.05;;;2.40;99.90;;;;;;5092771;28;20122;-61
2023/03/07 09:19:04;;;;;;;9.65;1.52;;;2.40;99.90;;;;;;5091656;28;20476;-61
2023/03/07 09:21:30;;;;;;;6.03;1.80;;;2.50;99.90;;;;;;5087359;28;20559;-61
2023/03/07 09:23:56;;;;;;;7.00;1.92;;;2.60;99.90;;;;;;5054784;28;20123;-61
2023/03/07 09:26:22;;;;;;;5.10;1.60;;;2.60;99.90;;;;;;5105712;28;20127;-61
2023/03/07 09:28:47;;;;;;;6.05;1.38;;;2.70;99.90;;;;;;5092559;28;20040;-61
2023/03/07 09:31:14;;;;;;;10.13;2.60;;;2.80;99.90;;;;;;5073723;28;20545;-61
2023/03/07 09:33:41;;;;;;;6.40;1.90;;;2.80;99.90;;;;;;5083314;28;20120;-60
2023/03/07 09:36:08;;;;;;;11.52;4.32;;;2.90;99.90;;;;;;5076175;28;20028;-61
2023/03/07 09:38:35;;;;;;;10.40;4.93;;;2.90;99.90;;;;;;5079375;28;20090;-61
2023/03/07 09:41:16;;;;;;;13.38;5.47;;;2.90;99.90;;;;;;5072062;28;20097;-61
2023/03/07 09:44:11;;;;;;;12.77;4.90;;;3.00;99.90;;;;;;5076821;28;20048;-61
2023/03/07 09:46:58;;;;;;;12.15;4.55;;;3.10;99.90;;;;;;5075468;28;20050;-61
2023/03/07 09:49:37;;;;;;;10.63;4.15;;;3.10;99.90;;;;;;5054799;28;20680;-60
2023/03/07 09:52:12;;;;;;;12.60;3.05;;;3.10;99.90;;;;;;5086258;28;20050;-61
2023/03/07 09:54:46;;;;;;;;;;;3.10;99.90;;;;;;5081713;28;20044;-61
2023/03/07 09:57:21;;;;;;;9.82;2.83;;;3.20;99.90;;;;;;5084565;28;19919;-61
2023/03/07 10:00:22;;;;;;;12.35;5.43;;;3.30;99.90;;;;;;5073055;28;20043;-61
2023/03/07 10:03:27;;;;;;;11.70;2.97;;;3.40;99.90;;;;;;5078083;28;20120;-61
2023/03/07 10:05:58;;;;;;;9.43;1.80;;;3.50;99.90;;;;;;5100934;28;20032;-60
2023/03/07 10:08:29;;;;;;;10.82;2.15;;;3.60;99.90;;;;;;5090439;28;20043;-60
2023/03/07 10:11:07;;;;;;;7.47;2.80;;;3.70;99.90;;;;;;5092120;28;20048;-61
2023/03/07 10:13:56;;;;;;;11.48;4.28;;;3.80;99.90;;;;;;5060521;28;20036;-60
2023/03/07 10:16:26;;;;;;;8.45;1.88;;;3.90;99.90;;;;;;5086571;28;20072;-61
2023/03/07 10:19:01;;;;;;;17.17;3.67;;;3.90;99.90;;;;;;5109985;28;20039;-61
2023/03/07 10:21:33;;;;;;;9.00;2.05;;;4.00;99.90;;;;;;5095165;28;20028;-60
2023/03/07 10:24:10;;;;;;;8.77;2.10;;;4.00;99.90;;;;;;5090145;28;20074;-61
2023/03/07 10:27:03;;;;;;;8.98;2.55;;;4.10;99.90;;;;;;5088788;28;20048;-61
2023/03/07 10:29:35;;;;;;;6.72;1.50;;;4.10;99.90;;;;;;5093079;28;20040;-61
2023/03/07 10:32:35;;;;;;;10.23;1.77;;;4.10;99.90;;;;;;5092002;28;20625;-61
2023/03/07 10:35:15;;;;;;;9.02;1.77;;;4.10;99.90;;;;;;5082833;28;20048;-61
2023/03/07 10:37:52;;;;;;;6.60;1.80;;;4.10;99.90;;;;;;5081113;28;20040;-61
2023/03/07 10:40:27;;;;;;;8.45;1.92;;;4.00;99.90;;;;;;5086534;28;20071;-62
2023/03/07 10:42:54;;;;;;;7.22;1.58;;;4.10;99.90;;;;;;5079821;28;20399;-61
2023/03/07 10:45:20;;;;;;;6.32;1.70;;;4.20;99.90;;;;;;5078743;28;20554;-61
2023/03/07 10:47:46;;;;;;;6.88;1.30;;;4.40;99.90;;;;;;5070684;28;20075;-61
2023/03/07 10:50:44;;;;;;;7.30;1.40;;;4.40;99.90;;;;;;5074504;28;20067;-61
2023/03/07 10:53:23;;;;;;;7.68;1.70;;;4.40;99.90;;;;;;5047020;28;20048;-61
2023/03/07 10:55:49;;;;;;;8.55;1.85;;;4.40;99.90;;;;;;5072807;28;20097;-61
2023/03/07 10:58:25;;;;;;;8.25;1.38;;;4.50;99.90;;;;;;5071628;28;20040;-61
2023/03/07 11:01:06;;;;;;;9.63;1.58;;;4.60;99.90;;;;;;5055987;28;20042;-61
2023/03/07 11:03:37;;;;;;;15.60;2.83;;;4.90;99.90;;;;;;5073562;28;20040;-61
2023/03/07 11:06:04;;;;;;;6.38;1.35;;;5.10;99.90;;;;;;5064390;28;20055;-61
2023/03/07 11:08:34;;;;;;;5.82;1.27;;;5.30;99.90;;;;;;5086375;28;20055;-61
2023/03/07 11:11:03;;;;;;;6.25;2.45;;;5.50;99.90;;;;;;5083947;28;20036;-61
2023/03/07 11:13:30;;;;;;;13.75;1.80;;;5.40;99.90;;;;;;5080007;28;20047;-61
2023/03/07 11:16:15;;;;;;;6.10;1.38;;;5.20;99.90;;;;;;5080790;28;20044;-61
2023/03/07 11:18:43;;;;;;;4.47;1.30;;;5.00;99.90;;;;;;5065935;28;20393;-61
2023/03/07 11:21:33;;;;;;;7.55;1.23;;;4.80;99.90;;;;;;5073778;28;20043;-61
2023/03/07 11:24:23;;;;;;;5.78;1.60;;;4.70;99.90;;;;;;5085151;28;20032;-61
2023/03/07 11:26:53;;;;;;;6.05;1.42;;;4.50;99.90;;;;;;5082975;28;20086;-61
2023/03/07 11:29:19;;;;;;;6.15;1.35;;;4.50;99.90;;;;;;5099649;28;20127;-61
2023/03/07 11:32:17;;;;;;;6.90;1.42;;;4.50;99.90;;;;;;5080972;28;20131;-61
2023/03/07 11:34:48;;;;;;;4.18;1.77;;;4.70;99.90;;;;;;5075982;28;20041;-61
2023/03/07 11:37:32;;;;;;;5.82;1.40;;;4.90;99.90;;;;;;5069457;28;20040;-60
2023/03/07 11:40:20;;;;;;;5.90;1.20;;;5.00;99.90;;;;;;5082008;28;20492;-60
2023/03/07 11:43:01;;;;;;;7.53;1.75;;;5.10;99.90;;;;;;5086562;28;20044;-61
2023/03/07 11:45:33;;;;;;;6.13;1.27;;;5.10;99.90;;;;;;5079069;28;20032;-60
2023/03/07 11:47:59;;;;;;;5.45;1.17;;;5.20;99.90;;;;;;5070607;28;20048;-60
2023/03/07 11:50:28;;;;;;;4.28;1.17;;;5.30;99.90;;;;;;5070427;28;20143;-60
2023/03/07 11:52:57;;;;;;;5.88;1.00;;;5.40;99.90;;;;;;5072552;28;20083;-60
2023/03/07 11:55:34;;;;;;;7.78;1.50;;;5.50;99.90;;;;;;5053067;28;20127;-60
2023/03/07 11:58:18;;;;;;;6.63;1.88;;;5.60;99.90;;;;;;5071098;28;20532;-60
2023/03/07 12:00:52;;;;;;;4.45;1.13;;;5.60;99.90;;;;;;5071155;28;20044;-60
2023/03/07 12:03:40;;;;;;;5.80;1.00;;;5.60;99.90;;;;;;5069775;28;20041;-61
2023/03/07 12:06:33;;;;;;;7.32;2.03;;;5.60;99.90;;;;;;5070325;28;20044;-61
2023/03/07 12:09:11;;;;;;;5.00;1.20;;;5.50;99.90;;;;;;5071219;28;20128;-61
2023/03/07 12:11:58;;;;;;;8.48;1.17;;;5.50;99.90;;;;;;5072112;28;20040;-60
2023/03/07 12:14:24;;;;;;;6.38;1.42;;;5.60;99.90;;;;;;5070464;28;20449;-61
2023/03/07 12:17:11;;;;;;;7.32;1.10;;;5.90;99.90;;;;;;5069940;28;20075;-61
2023/03/07 12:19:51;;;;;;;15.20;1.80;;;6.00;99.90;;;;;;5070810;28;20413;-61
2023/03/07 12:22:26;;;;;;;6.18;1.05;;;5.70;99.90;;;;;;5069276;28;20128;-61
2023/03/07 12:25:18;;;;;;;6.43;1.38;;;5.50;99.90;;;;;;5072056;28;20040;-61
2023/03/07 12:28:07;;;;;;;4.40;1.23;;;5.40;99.90;;;;;;5071818;28;20105;-61
2023/03/07 12:30:51;;;;;;;6.05;1.10;;;5.30;99.90;;;;;;5053314;28;20051;-61
2023/03/07 12:33:27;;;;;;;4.55;0.70;;;5.40;99.90;;;;;;5071422;28;20048;-61
2023/03/07 12:35:55;;;;;;;;;;;5.40;99.90;;;;;;5070926;28;20040;-61
2023/03/07 12:38:35;;;;;;;4.75;1.00;;;5.40;99.90;;;;;;5070386;28;19990;-61
2023/03/07 12:41:10;;;;;;;6.13;1.60;;;5.30;99.90;;;;;;5070136;28;20048;-61
2023/03/07 12:43:44;;;;;;;4.45;0.77;;;5.40;99.90;;;;;;5071147;28;20036;-61
2023/03/07 12:46:31;;;;;;;6.35;1.10;;;5.50;99.90;;;;;;5070012;28;20408;-61
2023/03/07 12:49:27;;;;;;;6.78;2.08;;;5.60;99.90;;;;;;5074266;28;20056;-61
2023/03/07 12:51:58;;;;;;;5.15;0.98;;;5.50;99.90;;;;;;5073670;28;20101;-61
2023/03/07 12:54:32;;;;;;;4.40;1.05;;;5.40;99.90;;;;;;5074727;28;20465;-61
2023/03/07 12:57:10;;;;;;;8.50;1.52;;;5.30;99.90;;;;;;5074082;28;20080;-61
2023/03/07 12:59:41;;;;;;;8.82;1.50;;;5.20;99.90;;;;;;5057411;28;20493;-61
2023/03/07 13:02:25;;;;;;;6.97;1.73;;;5.10;99.90;;;;;;5074781;28;20044;-61
2023/03/07 13:04:52;;;;;;;11.50;1.80;;;5.10;99.90;;;;;;5056650;28;20051;-61
2023/03/07 13:07:25;;;;;;;6.85;1.25;;;5.30;99.90;;;;;;5073123;28;20127;-61
2023/03/07 13:09:53;;;;;;;5.93;1.52;;;5.50;99.90;;;;;;5075106;28;20044;-61